KNUQ

Moffett Federal Afld Airport

Mountain View, California, USA
METAR KNUQ 181256Z 15003KT 10SM CLR 08/06 A3030 RMK AO2 SLP262 T00780061 $
Observed Flight Rules
Dec-18 @ 12:56 UTC (42 minutes ago) Visual Flight Rules
Wind Visibility Clouds
150° at 3 knots 10 miles
  • Clear skies
Temperatures Readings
Current 8°C / 46°F
Dewpoint 6°C / 43°F
Humidity 87%
Altimeter 30.3" Hg
Pressure 1026.2 hPa
Elevation 12
METAR KNUQ 181256Z 15003KT 10SM CLR 08/06 A3030 RMK AO2 SLP262 T00780061 $
Observed Flight Rules
Dec-18 @ 12:56 UTC
(42 minutes ago)
VFR
Wind Visibility
150° at 3 knots 10 miles
Clouds
  • Clear skies
Temperature Dewpoint
8°C / 46°F 6°C / 43°F
Humidity Altimeter Pressure
87% 30.3" Hg 1026.2 hPa